createdAt,value
2018-11-05T00:01:19.663Z,27.50
2018-11-05T00:03:47.747Z,23.93
2018-11-05T00:06:15.857Z,27.83
2018-11-05T00:08:43.999Z,28.63
2018-11-05T00:11:12.279Z,30.57
2018-11-05T00:13:40.631Z,28.10
2018-11-05T00:16:08.912Z,30.83
2018-11-05T00:18:37.123Z,31.57
2018-11-05T00:21:05.609Z,31.23
2018-11-05T00:23:33.707Z,23.23
2018-11-05T00:26:01.770Z,28.30
2018-11-05T00:28:29.939Z,25.40
2018-11-05T00:30:57.993Z,31.90
2018-11-05T00:33:26.057Z,20.80
2018-11-05T00:35:54.115Z,22.47
2018-11-05T00:38:22.332Z,26.13
2018-11-05T00:40:50.445Z,22.80
2018-11-05T00:43:18.480Z,22.93
2018-11-05T00:45:46.635Z,25.43
2018-11-05T00:48:14.661Z,26.70
2018-11-05T00:50:42.938Z,28.23
2018-11-05T00:53:11.049Z,31.73
2018-11-05T00:55:39.116Z,21.77
2018-11-05T00:58:07.251Z,24.90
2018-11-05T01:00:35.387Z,23.90
2018-11-05T01:03:03.471Z,30.23
2018-11-05T01:05:31.548Z,26.23
2018-11-05T01:07:59.600Z,22.13
2018-11-05T01:10:27.832Z,26.30
2018-11-05T01:12:55.895Z,33.00
2018-11-05T01:15:23.965Z,27.20
2018-11-05T01:17:52.071Z,29.10
2018-11-05T01:20:20.171Z,27.43
2018-11-05T01:22:48.301Z,25.80
2018-11-05T01:25:16.380Z,26.63
2018-11-05T01:27:44.459Z,24.23
2018-11-05T01:30:13.567Z,22.60
2018-11-05T01:32:41.681Z,29.13
2018-11-05T01:35:11.476Z,28.53
2018-11-05T01:37:39.566Z,33.00
2018-11-05T01:40:09.745Z,27.23
2018-11-05T01:42:38.223Z,33.67
2018-11-05T01:45:07.857Z,23.80
2018-11-05T01:47:35.980Z,27.03
2018-11-05T01:50:04.353Z,30.50
2018-11-05T01:52:32.469Z,31.13
2018-11-05T01:55:00.600Z,32.43
2018-11-05T01:57:28.709Z,30.17
2018-11-05T01:59:56.821Z,26.17
2018-11-05T02:02:24.924Z,26.77
2018-11-05T02:04:53.059Z,26.70
2018-11-05T02:07:21.173Z,24.60
2018-11-05T02:09:49.386Z,23.43
2018-11-05T02:12:17.509Z,27.03
2018-11-05T02:14:45.581Z,27.83
2018-11-05T02:17:13.749Z,26.23
2018-11-05T02:19:42.892Z,30.95
2018-11-05T02:22:11.276Z,26.97
2018-11-05T02:24:39.405Z,30.73
2018-11-05T02:27:07.559Z,27.60
2018-11-05T02:29:35.644Z,29.52
2018-11-05T02:32:03.764Z,37.73
2018-11-05T02:34:31.905Z,34.05
2018-11-05T02:37:00.132Z,28.00
2018-11-05T02:39:28.255Z,30.12
2018-11-05T02:41:56.354Z,28.83
2018-11-05T02:44:24.490Z,33.30
2018-11-05T02:46:52.826Z,31.57
2018-11-05T02:49:20.929Z,24.82
2018-11-05T02:51:49.012Z,24.87
2018-11-05T02:54:17.139Z,35.75
2018-11-05T02:56:45.252Z,34.83
2018-11-05T02:59:13.393Z,34.38
2018-11-05T03:01:41.489Z,28.62
2018-11-05T03:04:09.638Z,27.35
2018-11-05T03:06:37.744Z,35.58
2018-11-05T03:09:08.782Z,25.50
2018-11-05T03:11:37.063Z,35.58
2018-11-05T03:14:05.429Z,24.65
2018-11-05T03:16:33.579Z,43.42
2018-11-05T03:19:01.674Z,28.32
2018-11-05T03:21:29.764Z,22.42
2018-11-05T03:23:57.857Z,24.50
2018-11-05T03:26:25.928Z,35.17
2018-11-05T03:28:54.105Z,27.52
2018-11-05T03:31:22.369Z,19.82
2018-11-05T03:33:50.642Z,28.35
2018-11-05T03:36:18.745Z,20.90
2018-11-05T03:38:46.854Z,24.47
2018-11-05T03:41:14.999Z,23.00
2018-11-05T03:43:43.060Z,22.67
2018-11-05T03:46:11.184Z,23.77
2018-11-05T03:48:39.278Z,21.82
2018-11-05T03:51:07.381Z,19.40
2018-11-05T03:53:35.506Z,19.75
2018-11-05T03:56:03.675Z,24.57
2018-11-05T03:58:31.665Z,21.37
2018-11-05T04:00:59.803Z,15.48
2018-11-05T04:03:27.959Z,31.35
2018-11-05T04:05:55.979Z,18.67
2018-11-05T04:08:24.073Z,18.95
2018-11-05T04:10:52.150Z,21.45
2018-11-05T04:13:20.224Z,21.80
2018-11-05T04:15:48.408Z,19.95
2018-11-05T04:18:16.431Z,16.62
2018-11-05T04:20:44.501Z,23.40
2018-11-05T04:23:12.624Z,20.70
2018-11-05T04:25:40.689Z,25.62
2018-11-05T04:28:08.766Z,20.77
2018-11-05T04:30:36.837Z,20.85
2018-11-05T04:33:05.357Z,24.55
2018-11-05T04:35:33.438Z,23.60
2018-11-05T04:38:01.507Z,22.82
2018-11-05T04:40:29.713Z,21.33
2018-11-05T04:42:57.793Z,22.05
2018-11-05T04:45:25.921Z,28.38
2018-11-05T04:47:54.017Z,24.77
2018-11-05T04:50:22.110Z,18.27
2018-11-05T04:52:50.185Z,21.42
2018-11-05T04:55:18.314Z,18.27
2018-11-05T04:57:46.389Z,21.70
2018-11-05T05:00:16.798Z,40.35
2018-11-05T05:02:44.900Z,22.77
2018-11-05T05:05:14.185Z,30.68
2018-11-05T05:07:42.432Z,28.30
2018-11-05T05:10:10.975Z,22.40
2018-11-05T05:12:40.252Z,26.73
2018-11-05T05:15:08.740Z,21.05
2018-11-05T05:17:37.097Z,20.37
2018-11-05T05:20:07.829Z,20.27
2018-11-05T05:22:36.036Z,14.53
2018-11-05T05:25:04.117Z,19.85
2018-11-05T05:27:32.201Z,17.27
2018-11-05T05:30:00.316Z,18.77
2018-11-05T05:32:28.388Z,16.70
2018-11-05T05:34:56.533Z,17.73
2018-11-05T05:37:24.597Z,15.80
2018-11-05T05:39:52.681Z,22.58
2018-11-05T05:42:20.773Z,20.23
2018-11-05T05:44:48.854Z,20.72
2018-11-05T05:47:17.032Z,14.93
2018-11-05T05:49:45.093Z,15.63
2018-11-05T05:52:13.175Z,16.17
2018-11-05T05:54:41.246Z,31.17
2018-11-05T05:57:09.474Z,20.85
2018-11-05T05:59:37.559Z,17.17
2018-11-05T06:02:06.450Z,16.80
2018-11-05T06:04:34.576Z,19.17
2018-11-05T06:07:02.654Z,12.60
2018-11-05T06:09:30.750Z,13.28
2018-11-05T06:11:58.887Z,15.18
2018-11-05T06:14:26.999Z,14.93
2018-11-05T06:16:55.078Z,14.07
2018-11-05T06:19:23.118Z,14.05
2018-11-05T06:21:51.301Z,14.90
2018-11-05T06:24:19.253Z,12.10
2018-11-05T06:26:47.349Z,10.25
2018-11-05T06:29:15.433Z,14.78
2018-11-05T06:31:43.501Z,14.93
2018-11-05T06:34:11.585Z,12.37
2018-11-05T06:36:39.709Z,13.93
2018-11-05T06:39:11.459Z,9.78
2018-11-05T06:41:40.093Z,12.63
2018-11-05T06:44:08.305Z,9.38
2018-11-05T06:46:36.333Z,11.48
2018-11-05T06:49:04.488Z,15.45
2018-11-05T06:51:32.802Z,18.20
2018-11-05T06:54:00.881Z,12.63
2018-11-05T06:56:28.953Z,11.65
2018-11-05T06:58:57.053Z,14.25
2018-11-05T07:01:25.123Z,10.63
2018-11-05T07:03:53.200Z,15.45
2018-11-05T07:06:21.272Z,14.45
2018-11-05T07:08:49.348Z,11.22
2018-11-05T07:11:17.679Z,14.85
2018-11-05T07:13:45.646Z,11.57
2018-11-05T07:16:13.711Z,12.35
2018-11-05T07:18:42.006Z,18.30
2018-11-05T07:21:09.948Z,14.93
2018-11-05T07:23:38.205Z,14.07
2018-11-05T07:26:07.342Z,15.70
2018-11-05T07:28:35.458Z,13.60
2018-11-05T07:31:03.550Z,17.98
2018-11-05T07:33:31.774Z,17.55
2018-11-05T07:35:59.654Z,15.55
2018-11-05T07:38:27.729Z,20.43
2018-11-05T07:40:55.810Z,13.40
2018-11-05T07:43:23.910Z,20.85
2018-11-05T07:45:51.983Z,20.95
2018-11-05T07:48:20.058Z,16.52
2018-11-05T07:50:48.228Z,18.67
2018-11-05T07:53:16.324Z,18.55
2018-11-05T07:55:44.425Z,17.98
2018-11-05T07:58:12.521Z,16.10
2018-11-05T08:01:11.220Z,21.45
2018-11-05T08:03:39.296Z,12.37
2018-11-05T08:06:07.402Z,15.00
2018-11-05T08:08:35.478Z,20.17
2018-11-05T08:11:03.581Z,16.67
2018-11-05T08:13:31.640Z,17.62
2018-11-05T08:15:59.741Z,15.15
2018-11-05T08:18:27.804Z,20.50
2018-11-05T08:20:56.003Z,20.68
2018-11-05T08:23:24.308Z,16.85
2018-11-05T08:25:52.400Z,19.62
2018-11-05T08:28:20.459Z,15.13
2018-11-05T08:30:48.555Z,13.43
2018-11-05T08:33:16.810Z,22.37
2018-11-05T08:35:44.897Z,19.52
2018-11-05T08:38:13.001Z,26.33
2018-11-05T08:40:41.066Z,23.18
2018-11-05T08:43:09.162Z,16.17
2018-11-05T08:45:37.259Z,20.10
2018-11-05T08:48:05.328Z,17.55
2018-11-05T08:50:33.454Z,16.10
2018-11-05T08:53:01.525Z,14.78
2018-11-05T08:55:29.665Z,16.77
2018-11-05T08:57:57.752Z,16.95
2018-11-05T09:00:31.322Z,18.05
2018-11-05T09:02:59.434Z,31.82
2018-11-05T09:05:27.507Z,20.35
2018-11-05T09:07:56.230Z,15.75
2018-11-05T09:10:24.535Z,15.72
2018-11-05T09:12:52.440Z,20.85
2018-11-05T09:15:21.573Z,15.70
2018-11-05T09:17:49.704Z,19.60
2018-11-05T09:20:18.652Z,13.38
2018-11-05T09:22:47.457Z,17.77
2018-11-05T09:25:16.319Z,16.30
2018-11-05T09:27:44.487Z,13.50
2018-11-05T09:30:14.636Z,18.40
2018-11-05T09:32:43.313Z,15.20
2018-11-05T09:35:11.417Z,23.57
2018-11-05T09:37:39.622Z,18.15
2018-11-05T09:40:10.085Z,17.60
2018-11-05T09:42:39.117Z,21.82
2018-11-05T09:45:09.916Z,18.67
2018-11-05T09:47:38.041Z,21.20
2018-11-05T09:50:07.400Z,14.83
2018-11-05T09:52:35.526Z,20.17
2018-11-05T09:55:03.595Z,16.20
2018-11-05T09:57:31.663Z,19.43
2018-11-05T09:59:59.769Z,18.87
2018-11-05T10:02:33.961Z,20.37
2018-11-05T10:05:02.255Z,24.73
2018-11-05T10:07:30.073Z,20.10
2018-11-05T10:09:58.148Z,20.80
2018-11-05T10:12:26.324Z,20.80
2018-11-05T10:14:54.404Z,24.37
2018-11-05T10:17:22.466Z,21.20
2018-11-05T10:19:50.581Z,32.53
2018-11-05T10:22:18.659Z,22.20
2018-11-05T10:24:46.845Z,22.00
2018-11-05T10:27:14.777Z,17.37
2018-11-05T10:29:42.839Z,28.73
2018-11-05T10:32:10.921Z,23.33
2018-11-05T10:34:39.034Z,22.47
2018-11-05T10:37:07.170Z,23.30
2018-11-05T10:39:35.283Z,20.83
2018-11-05T10:42:03.377Z,23.40
2018-11-05T10:44:31.445Z,17.33
2018-11-05T10:46:59.573Z,17.77
2018-11-05T10:49:27.674Z,21.77
2018-11-05T10:51:55.839Z,22.40
2018-11-05T10:54:23.824Z,18.53
2018-11-05T10:56:51.970Z,28.57
2018-11-05T10:59:20.037Z,31.00
2018-11-05T11:01:53.626Z,22.60
2018-11-05T11:04:27.051Z,24.07
2018-11-05T11:06:55.049Z,26.13
2018-11-05T11:09:23.149Z,23.93
2018-11-05T11:11:51.263Z,22.37
2018-11-05T11:14:19.360Z,22.43
2018-11-05T11:16:47.434Z,26.53
2018-11-05T11:19:15.593Z,17.67
2018-11-05T11:21:43.708Z,24.83
2018-11-05T11:24:11.847Z,18.47
2018-11-05T11:26:39.950Z,16.07
2018-11-05T11:29:08.219Z,17.70
2018-11-05T11:31:36.371Z,16.33
2018-11-05T11:34:04.453Z,14.70
2018-11-05T11:36:32.622Z,12.77
2018-11-05T11:39:00.670Z,13.70
2018-11-05T11:41:28.785Z,19.37
2018-11-05T11:43:56.869Z,15.40
2018-11-05T11:46:24.924Z,17.60
2018-11-05T11:48:52.992Z,17.80
2018-11-05T11:51:21.052Z,20.30
2018-11-05T11:53:49.158Z,17.10
2018-11-05T11:56:17.311Z,21.23
2018-11-05T11:58:45.473Z,14.33
2018-11-05T12:01:13.496Z,15.93
2018-11-05T12:03:41.602Z,16.17
2018-11-05T12:06:09.620Z,14.10
2018-11-05T12:08:37.724Z,24.67
2018-11-05T12:11:05.917Z,18.40
2018-11-05T12:13:34.084Z,21.67
2018-11-05T12:16:02.155Z,19.07
2018-11-05T12:18:30.217Z,22.57
2018-11-05T12:20:58.341Z,22.40
2018-11-05T12:23:26.443Z,24.13
2018-11-05T12:25:54.536Z,20.13
2018-11-05T12:28:22.599Z,25.10
2018-11-05T12:30:50.698Z,25.23
2018-11-05T12:33:18.842Z,26.17
2018-11-05T12:35:46.896Z,23.43
2018-11-05T12:38:14.973Z,19.90
2018-11-05T12:40:43.041Z,23.30
2018-11-05T12:43:11.161Z,18.63
2018-11-05T12:45:39.228Z,20.13
2018-11-05T12:48:07.302Z,18.00
2018-11-05T12:50:35.429Z,16.70
2018-11-05T12:53:03.510Z,15.27
2018-11-05T12:55:31.591Z,13.73
2018-11-05T12:57:59.721Z,13.70
2018-11-05T13:00:27.861Z,18.23
2018-11-05T13:02:58.305Z,15.93
2018-11-05T13:05:27.209Z,16.73
2018-11-05T13:07:55.317Z,16.53
2018-11-05T13:10:23.629Z,22.63
2018-11-05T13:12:51.713Z,19.57
2018-11-05T13:15:19.871Z,13.53
2018-11-05T13:17:47.933Z,14.00
2018-11-05T13:20:18.201Z,11.47
2018-11-05T13:22:46.688Z,22.97
2018-11-05T13:25:14.850Z,12.63
2018-11-05T13:27:44.270Z,12.97
2018-11-05T13:30:13.140Z,18.50
2018-11-05T13:32:41.640Z,13.90
2018-11-05T13:35:11.965Z,13.87
2018-11-05T13:37:40.462Z,13.80
2018-11-05T13:40:10.696Z,13.43
2018-11-05T13:42:38.827Z,11.73
2018-11-05T13:45:08.444Z,11.73
2018-11-05T13:47:37.208Z,11.30
2018-11-05T13:50:05.466Z,12.63
2018-11-05T13:52:33.371Z,10.60
2018-11-05T13:55:01.706Z,14.90
2018-11-05T13:57:29.415Z,20.70
2018-11-05T13:59:57.537Z,10.80
2018-11-05T14:02:25.673Z,14.60
2018-11-05T14:04:53.729Z,14.07
2018-11-05T14:07:21.813Z,15.60
2018-11-05T14:09:49.900Z,13.80
2018-11-05T14:12:18.005Z,10.23
2018-11-05T14:14:46.098Z,10.03
2018-11-05T14:17:14.213Z,20.70
2018-11-05T14:19:42.296Z,21.93
2018-11-05T14:22:10.444Z,18.00
2018-11-05T14:24:38.504Z,14.40
2018-11-05T14:27:06.640Z,15.50
2018-11-05T14:29:35.313Z,16.30
2018-11-05T14:32:02.855Z,13.43
2018-11-05T14:34:30.950Z,18.07
2018-11-05T14:36:59.139Z,25.17
2018-11-05T14:39:27.076Z,15.90
2018-11-05T14:41:55.131Z,15.70
2018-11-05T14:44:23.226Z,10.57
2018-11-05T14:46:51.291Z,12.23
2018-11-05T14:49:19.359Z,16.17
2018-11-05T14:51:47.482Z,13.30
2018-11-05T14:54:15.568Z,17.93
2018-11-05T14:56:43.649Z,15.37
2018-11-05T14:59:11.754Z,18.53
2018-11-05T15:01:39.823Z,16.67
2018-11-05T15:04:07.936Z,17.83
2018-11-05T15:06:36.032Z,15.90
2018-11-05T15:09:05.925Z,13.90
2018-11-05T15:11:34.009Z,15.73
2018-11-05T15:14:02.132Z,17.60
2018-11-05T15:16:30.183Z,16.70
2018-11-05T15:18:58.538Z,15.23
2018-11-05T15:21:26.436Z,18.43
2018-11-05T15:23:54.659Z,16.23
2018-11-05T15:26:22.773Z,19.33
2018-11-05T15:28:50.867Z,23.53
2018-11-05T15:31:18.960Z,18.57
2018-11-05T15:33:47.144Z,12.07
2018-11-05T15:36:15.201Z,19.77
2018-11-05T15:38:43.334Z,16.50
2018-11-05T15:41:11.511Z,15.13
2018-11-05T15:43:39.640Z,20.90
2018-11-05T15:46:08.140Z,18.30
2018-11-05T15:48:36.221Z,15.63
2018-11-05T15:51:04.480Z,15.70
2018-11-05T15:53:32.755Z,18.33
2018-11-05T15:56:00.634Z,19.73
2018-11-05T15:58:28.717Z,18.73
2018-11-05T16:00:56.817Z,18.97
2018-11-05T16:03:24.909Z,24.80
2018-11-05T16:05:53.010Z,47.40
2018-11-05T16:08:21.141Z,36.37
2018-11-05T16:10:49.302Z,44.27
2018-11-05T16:13:17.468Z,47.83
2018-11-05T16:15:45.544Z,52.83
2018-11-05T16:18:13.692Z,51.47
2018-11-05T16:20:41.830Z,53.90
2018-11-05T16:23:09.935Z,62.77
2018-11-05T16:25:38.080Z,78.30
2018-11-05T16:28:06.719Z,58.70
2018-11-05T16:30:34.846Z,49.13
2018-11-05T16:33:02.929Z,58.00
2018-11-05T16:35:31.087Z,36.70
2018-11-05T16:37:59.144Z,28.13
2018-11-05T16:40:27.275Z,43.67
2018-11-05T16:42:55.595Z,37.10
2018-11-05T16:45:23.834Z,41.87
2018-11-05T16:47:52.077Z,21.10
2018-11-05T16:50:22.068Z,32.00
2018-11-05T16:52:50.136Z,32.27
2018-11-05T16:55:18.292Z,30.50
2018-11-05T16:57:46.436Z,35.20
2018-11-05T17:00:15.110Z,25.90
2018-11-05T17:02:44.158Z,23.50
2018-11-05T17:05:12.077Z,23.90
2018-11-05T17:07:40.455Z,23.53
2018-11-05T17:10:10.201Z,17.20
2018-11-05T17:12:38.312Z,28.63
2018-11-05T17:15:08.245Z,25.20
2018-11-05T17:17:36.376Z,22.07
2018-11-05T17:20:05.456Z,31.13
2018-11-05T17:22:33.541Z,31.57
2018-11-05T17:25:01.637Z,49.53
2018-11-05T17:27:29.792Z,29.27
2018-11-05T17:29:58.136Z,21.27
2018-11-05T17:32:26.251Z,24.17
2018-11-05T17:34:54.365Z,24.57
2018-11-05T17:37:22.488Z,26.17
2018-11-05T17:39:50.584Z,43.20
2018-11-05T17:42:19.554Z,31.30
2018-11-05T17:44:47.708Z,41.67
2018-11-05T17:47:15.777Z,39.40
2018-11-05T17:49:43.889Z,46.77
2018-11-05T17:52:12.036Z,39.47
2018-11-05T17:54:40.138Z,50.00
2018-11-05T17:57:08.312Z,30.80
2018-11-05T17:59:36.324Z,34.53
2018-11-05T18:02:04.409Z,26.43
2018-11-05T18:04:32.651Z,26.83
2018-11-05T18:07:00.605Z,25.10
2018-11-05T18:09:28.960Z,25.37
2018-11-05T18:11:56.919Z,27.40
2018-11-05T18:14:25.053Z,39.00
2018-11-05T18:16:53.169Z,41.53
2018-11-05T18:19:21.304Z,33.83
2018-11-05T18:21:49.564Z,44.07
2018-11-05T18:24:17.745Z,43.90
2018-11-05T18:26:45.794Z,34.50
2018-11-05T18:29:13.942Z,39.23
2018-11-05T18:31:42.058Z,27.17
2018-11-05T18:34:10.334Z,26.67
2018-11-05T18:36:38.418Z,24.53
2018-11-05T18:39:08.720Z,20.50
2018-11-05T18:41:37.194Z,23.07
2018-11-05T18:44:05.420Z,25.33
2018-11-05T18:46:33.525Z,22.60
2018-11-05T18:49:01.614Z,18.70
2018-11-05T18:51:29.820Z,17.90
2018-11-05T18:53:57.902Z,25.80
2018-11-05T18:56:26.011Z,28.23
2018-11-05T18:58:54.100Z,39.80
2018-11-05T19:01:22.263Z,52.67
2018-11-05T19:03:50.526Z,33.60
2018-11-05T19:06:18.566Z,31.17
2018-11-05T19:08:46.653Z,25.63
2018-11-05T19:11:14.717Z,23.50
2018-11-05T19:13:42.848Z,27.33
2018-11-05T19:16:10.912Z,26.17
2018-11-05T19:18:38.972Z,17.67
2018-11-05T19:21:07.075Z,18.03
2018-11-05T19:23:35.275Z,18.20
2018-11-05T19:26:03.317Z,16.40
2018-11-05T19:28:31.458Z,19.63
2018-11-05T19:30:59.529Z,20.93
2018-11-05T19:33:27.723Z,24.07
2018-11-05T19:35:55.855Z,21.80
2018-11-05T19:38:23.849Z,30.87
2018-11-05T19:40:51.953Z,20.27
2018-11-05T19:43:20.058Z,23.43
2018-11-05T19:45:48.149Z,22.47
2018-11-05T19:48:16.248Z,18.93
2018-11-05T19:50:44.338Z,25.80
2018-11-05T19:53:12.447Z,27.97
2018-11-05T19:55:40.579Z,22.50
2018-11-05T19:58:08.796Z,24.37
2018-11-05T20:00:36.944Z,21.70
2018-11-05T20:03:05.426Z,19.07
2018-11-05T20:05:33.597Z,22.13
2018-11-05T20:08:01.662Z,22.27
2018-11-05T20:10:29.784Z,18.53
2018-11-05T20:12:57.852Z,20.87
2018-11-05T20:15:25.992Z,24.53
2018-11-05T20:17:54.922Z,20.33
2018-11-05T20:20:24.061Z,30.20
2018-11-05T20:22:52.290Z,29.90
2018-11-05T20:25:20.344Z,33.73
2018-11-05T20:27:48.439Z,20.67
2018-11-05T20:30:22.602Z,20.27
2018-11-05T20:32:51.867Z,24.10
2018-11-05T20:35:19.735Z,22.07
2018-11-05T20:37:47.865Z,24.57
2018-11-05T20:40:17.290Z,25.23
2018-11-05T20:42:46.383Z,36.63
2018-11-05T20:45:15.231Z,20.50
2018-11-05T20:47:43.693Z,24.73
2018-11-05T20:50:12.604Z,21.87
2018-11-05T20:52:40.745Z,21.97
2018-11-05T20:55:09.995Z,20.73
2018-11-05T20:57:38.557Z,25.13
2018-11-05T21:00:08.268Z,24.40
2018-11-05T21:02:36.402Z,19.70
2018-11-05T21:05:04.715Z,23.73
2018-11-05T21:07:32.875Z,28.50
2018-11-05T21:10:00.946Z,25.83
2018-11-05T21:12:29.309Z,27.50
2018-11-05T21:14:57.539Z,21.47
2018-11-05T21:17:25.589Z,28.47
2018-11-05T21:19:53.682Z,25.17
2018-11-05T21:22:21.828Z,21.25
2018-11-05T21:24:49.841Z,22.20
2018-11-05T21:27:18.121Z,22.05
2018-11-05T21:29:46.253Z,24.00
2018-11-05T21:32:14.398Z,22.27
2018-11-05T21:34:42.515Z,30.72
2018-11-05T21:37:10.561Z,17.12
2018-11-05T21:39:38.634Z,19.77
2018-11-05T21:42:06.856Z,19.27
2018-11-05T21:44:34.986Z,24.57
2018-11-05T21:47:03.057Z,26.70
2018-11-05T21:49:31.196Z,21.37
2018-11-05T21:51:59.281Z,17.85
2018-11-05T21:54:27.518Z,30.05
2018-11-05T21:56:55.580Z,31.77
2018-11-05T21:59:23.657Z,21.17
2018-11-05T22:01:51.845Z,18.70
2018-11-05T22:04:20.009Z,26.65
2018-11-05T22:06:48.079Z,18.32
2018-11-05T22:09:16.184Z,21.25
2018-11-05T22:11:44.281Z,20.82
2018-11-05T22:14:12.397Z,20.27
2018-11-05T22:16:40.472Z,20.57
2018-11-05T22:19:08.550Z,34.03
2018-11-05T22:21:36.696Z,18.70
2018-11-05T22:24:05.354Z,27.65
2018-11-05T22:26:33.464Z,28.25
2018-11-05T22:29:01.571Z,22.02
2018-11-05T22:31:29.729Z,19.32
2018-11-05T22:33:57.939Z,22.22
2018-11-05T22:36:26.081Z,30.75
2018-11-05T22:38:54.101Z,30.25
2018-11-05T22:41:22.229Z,22.00
2018-11-05T22:43:50.370Z,25.45
2018-11-05T22:46:18.528Z,18.67
2018-11-05T22:48:46.617Z,21.48
2018-11-05T22:51:14.745Z,23.38
2018-11-05T22:53:42.844Z,23.00
2018-11-05T22:56:10.949Z,23.87
2018-11-05T22:58:39.040Z,19.15
2018-11-05T23:01:08.515Z,23.65
2018-11-05T23:03:36.725Z,20.62
2018-11-05T23:06:04.809Z,20.52
2018-11-05T23:08:32.912Z,19.35
2018-11-05T23:11:01.428Z,28.30
2018-11-05T23:13:29.534Z,22.07
2018-11-05T23:15:57.597Z,20.00
2018-11-05T23:18:25.896Z,20.02
2018-11-05T23:20:54.025Z,22.30
2018-11-05T23:23:22.169Z,17.35
2018-11-05T23:25:50.323Z,27.95
2018-11-05T23:28:18.638Z,26.10
2018-11-05T23:30:46.725Z,20.72
2018-11-05T23:33:14.846Z,20.23
2018-11-05T23:35:42.884Z,21.82
2018-11-05T23:38:11.272Z,19.87
2018-11-05T23:40:39.412Z,19.45
2018-11-05T23:43:07.488Z,21.30
2018-11-05T23:45:35.600Z,16.75
2018-11-05T23:48:03.688Z,21.55
2018-11-05T23:50:31.812Z,20.72
2018-11-05T23:52:59.964Z,19.05
2018-11-05T23:55:27.997Z,23.65
2018-11-05T23:57:56.117Z,13.40
